Main page
METAR-TAF:

METAR-TAF

Airports :

Gibraltar, Gibraltar

Gibraltar International Airport

latitude: 36-09N, longitude: 005-21W, elevation: 5 m

Current weather observation

The report was made 38 minutes ago, at 06:50 UTC
Wind 5 kt from the West/Southwest
Temperature 20°C
Humidity 83%
Pressure 1013 hPa
Visibility 10 km or more
Few clouds at a height of 3000 ft

METAR: LXGB 260650Z 25005KT 9999 FEW030 20/17 Q1013 NOSIG

Time: 09:28 (07:28 UTC)

Forecast

The report was made 3 hours and 0 minutes ago, at 04:28 UTC
Forecast valid from 26 at 06 UTC to 26 at 15 UTC
Wind 9 kt from the West
Visibility 10 km or more
Few clouds at a height of 2500 ft
Probability 40% :
Temporary
from 26 at 09 UTC to 26 at 15 UTC
Wind 15 kt from the South/Southwest

TAF: LXGB 260428Z 2606/2615 26009KT 9999 FEW025 PROB40 TEMPO 2609/2615 20015KT 520001

Weather observations and forecasts of more than 4000 airports (METAR and TAF reports).

The available stations are represented by yellow and red dots on the map.

Hover mouse over dot to see the name of the station.

Then click to see weather observations and forecasts.

To change the map : click on the green buttons with a black cross to zoom in, on the green button with a dash to zoom out, or on the green arrows for adjacent maps.


METAR-TAF: